<?xml version="1.0"?>
<gpx xmlns="http://www.topografix.com/GPX/1/1" version="1.1" creator="afstandmeten.nl" xmlns:xsi="http://www.w3.org/2001/XMLSchema-instance" xsi:schemaLocation="http://www.topografix.com/GPX/1/1 http://www.topografix.com/GPX/1/1/gpx.xsd">
  <trk>
    <name>GBM 25k</name>
    <desc/>
    <trkseg>
      <trkpt lat="51.0409824" lon="4.3243539">
        <ele>0.00000</ele>
        <time>2025-04-02T00:00:00Z</time>
      </trkpt>
      <trkpt lat="51.0410026" lon="4.3243539">
        <ele>0.00000</ele>
        <time>2025-04-02T00:00:01Z</time>
      </trkpt>
      <trkpt lat="51.0430736" lon="4.3221653">
        <ele>0.00000</ele>
        <time>2025-04-02T00:00:41Z</time>
      </trkpt>
      <trkpt lat="51.04312" lon="4.32212">
        <ele>0.00000</ele>
        <time>2025-04-02T00:00:42Z</time>
      </trkpt>
      <trkpt lat="51.044679" lon="4.3204701">
        <ele>0.00000</ele>
        <time>2025-04-02T00:01:12Z</time>
      </trkpt>
      <trkpt lat="51.045765" lon="4.3185925">
        <ele>0.00000</ele>
        <time>2025-04-02T00:01:38Z</time>
      </trkpt>
      <trkpt lat="51.0460348" lon="4.3181527">
        <ele>0.00000</ele>
        <time>2025-04-02T00:01:44Z</time>
      </trkpt>
      <trkpt lat="51.0468645" lon="4.317112">
        <ele>0.00000</ele>
        <time>2025-04-02T00:02:01Z</time>
      </trkpt>
      <trkpt lat="51.0470736" lon="4.3167472">
        <ele>0.00000</ele>
        <time>2025-04-02T00:02:06Z</time>
      </trkpt>
      <trkpt lat="51.0463" lon="4.31499">
        <ele>0.00000</ele>
        <time>2025-04-02T00:02:28Z</time>
      </trkpt>
      <trkpt lat="51.04621" lon="4.31485">
        <ele>0.00000</ele>
        <time>2025-04-02T00:02:30Z</time>
      </trkpt>
      <trkpt lat="51.04603" lon="4.31473">
        <ele>0.00000</ele>
        <time>2025-04-02T00:02:33Z</time>
      </trkpt>
      <trkpt lat="51.04585" lon="4.31453">
        <ele>0.00000</ele>
        <time>2025-04-02T00:02:36Z</time>
      </trkpt>
      <trkpt lat="51.04537" lon="4.31377">
        <ele>0.00000</ele>
        <time>2025-04-02T00:02:47Z</time>
      </trkpt>
      <trkpt lat="51.04444" lon="4.31269">
        <ele>0.00000</ele>
        <time>2025-04-02T00:03:06Z</time>
      </trkpt>
      <trkpt lat="51.04392" lon="4.31194">
        <ele>0.00000</ele>
        <time>2025-04-02T00:03:17Z</time>
      </trkpt>
      <trkpt lat="51.04212" lon="4.31001">
        <ele>0.00000</ele>
        <time>2025-04-02T00:03:52Z</time>
      </trkpt>
      <trkpt lat="51.04207" lon="4.30998">
        <ele>0.00000</ele>
        <time>2025-04-02T00:03:53Z</time>
      </trkpt>
      <trkpt lat="51.04195" lon="4.31018">
        <ele>0.00000</ele>
        <time>2025-04-02T00:03:56Z</time>
      </trkpt>
      <trkpt lat="51.04189" lon="4.31023">
        <ele>0.00000</ele>
        <time>2025-04-02T00:03:57Z</time>
      </trkpt>
      <trkpt lat="51.04134" lon="4.31023">
        <ele>0.00000</ele>
        <time>2025-04-02T00:04:05Z</time>
      </trkpt>
      <trkpt lat="51.04126" lon="4.31018">
        <ele>0.00000</ele>
        <time>2025-04-02T00:04:07Z</time>
      </trkpt>
      <trkpt lat="51.04031" lon="4.30903">
        <ele>0.00000</ele>
        <time>2025-04-02T00:04:26Z</time>
      </trkpt>
      <trkpt lat="51.04019" lon="4.30894">
        <ele>0.00000</ele>
        <time>2025-04-02T00:04:28Z</time>
      </trkpt>
      <trkpt lat="51.04005" lon="4.30889">
        <ele>0.00000</ele>
        <time>2025-04-02T00:04:31Z</time>
      </trkpt>
      <trkpt lat="51.03901" lon="4.30813">
        <ele>0.00000</ele>
        <time>2025-04-02T00:04:49Z</time>
      </trkpt>
      <trkpt lat="51.0377173" lon="4.3065119">
        <ele>0.00000</ele>
        <time>2025-04-02T00:05:15Z</time>
      </trkpt>
      <trkpt lat="51.0376363" lon="4.3065012">
        <ele>0.00000</ele>
        <time>2025-04-02T00:05:17Z</time>
      </trkpt>
      <trkpt lat="51.03737" lon="4.30675">
        <ele>0.00000</ele>
        <time>2025-04-02T00:05:22Z</time>
      </trkpt>
      <trkpt lat="51.0371303" lon="4.3068659">
        <ele>0.00000</ele>
        <time>2025-04-02T00:05:26Z</time>
      </trkpt>
      <trkpt lat="51.0368267" lon="4.3068874">
        <ele>0.00000</ele>
        <time>2025-04-02T00:05:31Z</time>
      </trkpt>
      <trkpt lat="51.0315439" lon="4.3018126">
        <ele>0.00000</ele>
        <time>2025-04-02T00:07:10Z</time>
      </trkpt>
      <trkpt lat="51.0308085" lon="4.3035936">
        <ele>0.00000</ele>
        <time>2025-04-02T00:07:31Z</time>
      </trkpt>
      <trkpt lat="51.0306735" lon="4.3038082">
        <ele>0.00000</ele>
        <time>2025-04-02T00:07:35Z</time>
      </trkpt>
      <trkpt lat="51.0305386" lon="4.3039906">
        <ele>0.00000</ele>
        <time>2025-04-02T00:07:37Z</time>
      </trkpt>
      <trkpt lat="51.029378" lon="4.3050206">
        <ele>0.00000</ele>
        <time>2025-04-02T00:07:59Z</time>
      </trkpt>
      <trkpt lat="51.0292498" lon="4.3053424">
        <ele>0.00000</ele>
        <time>2025-04-02T00:08:03Z</time>
      </trkpt>
      <trkpt lat="51.0291081" lon="4.3061149">
        <ele>0.00000</ele>
        <time>2025-04-02T00:08:11Z</time>
      </trkpt>
      <trkpt lat="51.0290204" lon="4.3069839">
        <ele>0.00000</ele>
        <time>2025-04-02T00:08:20Z</time>
      </trkpt>
      <trkpt lat="51.0289394" lon="4.306941">
        <ele>0.00000</ele>
        <time>2025-04-02T00:08:21Z</time>
      </trkpt>
      <trkpt lat="51.0278395" lon="4.3046987">
        <ele>0.00000</ele>
        <time>2025-04-02T00:08:50Z</time>
      </trkpt>
      <trkpt lat="51.0274144" lon="4.3037546">
        <ele>0.00000</ele>
        <time>2025-04-02T00:09:02Z</time>
      </trkpt>
      <trkpt lat="51.0272592" lon="4.30354">
        <ele>0.00000</ele>
        <time>2025-04-02T00:09:05Z</time>
      </trkpt>
      <trkpt lat="51.0268611" lon="4.3029177">
        <ele>0.00000</ele>
        <time>2025-04-02T00:09:14Z</time>
      </trkpt>
      <trkpt lat="51.0263212" lon="4.3020916">
        <ele>0.00000</ele>
        <time>2025-04-02T00:09:26Z</time>
      </trkpt>
      <trkpt lat="51.0251605" lon="4.3037438">
        <ele>0.00000</ele>
        <time>2025-04-02T00:09:51Z</time>
      </trkpt>
      <trkpt lat="51.0250053" lon="4.3038833">
        <ele>0.00000</ele>
        <time>2025-04-02T00:09:54Z</time>
      </trkpt>
      <trkpt lat="51.0248366" lon="4.303937">
        <ele>0.00000</ele>
        <time>2025-04-02T00:09:57Z</time>
      </trkpt>
      <trkpt lat="51.02471" lon="4.30396">
        <ele>0.00000</ele>
        <time>2025-04-02T00:09:59Z</time>
      </trkpt>
      <trkpt lat="51.0244047" lon="4.3039691">
        <ele>0.00000</ele>
        <time>2025-04-02T00:10:04Z</time>
      </trkpt>
      <trkpt lat="51.0239796" lon="4.3040979">
        <ele>0.00000</ele>
        <time>2025-04-02T00:10:11Z</time>
      </trkpt>
      <trkpt lat="51.0228998" lon="4.3043554">
        <ele>0.00000</ele>
        <time>2025-04-02T00:10:28Z</time>
      </trkpt>
      <trkpt lat="51.0227311" lon="4.3045378">
        <ele>0.00000</ele>
        <time>2025-04-02T00:10:31Z</time>
      </trkpt>
      <trkpt lat="51.0224342" lon="4.3049455">
        <ele>0.00000</ele>
        <time>2025-04-02T00:10:38Z</time>
      </trkpt>
      <trkpt lat="51.0223599" lon="4.3050206">
        <ele>0.00000</ele>
        <time>2025-04-02T00:10:39Z</time>
      </trkpt>
      <trkpt lat="51.0217391" lon="4.3052888">
        <ele>0.00000</ele>
        <time>2025-04-02T00:10:49Z</time>
      </trkpt>
      <trkpt lat="51.0216648" lon="4.3053961">
        <ele>0.00000</ele>
        <time>2025-04-02T00:10:51Z</time>
      </trkpt>
      <trkpt lat="51.0215771" lon="4.3059433">
        <ele>0.00000</ele>
        <time>2025-04-02T00:10:57Z</time>
      </trkpt>
      <trkpt lat="51.0214556" lon="4.3060613">
        <ele>0.00000</ele>
        <time>2025-04-02T00:10:59Z</time>
      </trkpt>
      <trkpt lat="51.0196942" lon="4.3075633">
        <ele>0.00000</ele>
        <time>2025-04-02T00:11:31Z</time>
      </trkpt>
      <trkpt lat="51.0195997" lon="4.3075633">
        <ele>0.00000</ele>
        <time>2025-04-02T00:11:33Z</time>
      </trkpt>
      <trkpt lat="51.018837" lon="4.3043876">
        <ele>0.00000</ele>
        <time>2025-04-02T00:12:07Z</time>
      </trkpt>
      <trkpt lat="51.0186886" lon="4.3038297">
        <ele>0.00000</ele>
        <time>2025-04-02T00:12:13Z</time>
      </trkpt>
      <trkpt lat="51.0186751" lon="4.3037331">
        <ele>0.00000</ele>
        <time>2025-04-02T00:12:14Z</time>
      </trkpt>
      <trkpt lat="51.0187358" lon="4.3036366">
        <ele>0.00000</ele>
        <time>2025-04-02T00:12:16Z</time>
      </trkpt>
      <trkpt lat="51.0188573" lon="4.3034649">
        <ele>0.00000</ele>
        <time>2025-04-02T00:12:18Z</time>
      </trkpt>
      <trkpt lat="51.0196" lon="4.30279">
        <ele>0.00000</ele>
        <time>2025-04-02T00:12:32Z</time>
      </trkpt>
      <trkpt lat="51.01967" lon="4.30262">
        <ele>0.00000</ele>
        <time>2025-04-02T00:12:34Z</time>
      </trkpt>
      <trkpt lat="51.01965" lon="4.30249">
        <ele>0.00000</ele>
        <time>2025-04-02T00:12:35Z</time>
      </trkpt>
      <trkpt lat="51.0184051" lon="4.2995918">
        <ele>0.00000</ele>
        <time>2025-04-02T00:13:11Z</time>
      </trkpt>
      <trkpt lat="51.0183038" lon="4.2994523">
        <ele>0.00000</ele>
        <time>2025-04-02T00:13:13Z</time>
      </trkpt>
      <trkpt lat="51.0181824" lon="4.2993665">
        <ele>0.00000</ele>
        <time>2025-04-02T00:13:15Z</time>
      </trkpt>
      <trkpt lat="51.0179934" lon="4.2991841">
        <ele>0.00000</ele>
        <time>2025-04-02T00:13:19Z</time>
      </trkpt>
      <trkpt lat="51.0176492" lon="4.2988729">
        <ele>0.00000</ele>
        <time>2025-04-02T00:13:25Z</time>
      </trkpt>
      <trkpt lat="51.0174939" lon="4.2987764">
        <ele>0.00000</ele>
        <time>2025-04-02T00:13:28Z</time>
      </trkpt>
      <trkpt lat="51.0173792" lon="4.2988086">
        <ele>0.00000</ele>
        <time>2025-04-02T00:13:30Z</time>
      </trkpt>
      <trkpt lat="51.0170282" lon="4.2989266">
        <ele>0.00000</ele>
        <time>2025-04-02T00:13:36Z</time>
      </trkpt>
      <trkpt lat="51.0169067" lon="4.2989373">
        <ele>0.00000</ele>
        <time>2025-04-02T00:13:38Z</time>
      </trkpt>
      <trkpt lat="51.0168055" lon="4.2989159">
        <ele>0.00000</ele>
        <time>2025-04-02T00:13:39Z</time>
      </trkpt>
      <trkpt lat="51.0167178" lon="4.2987978">
        <ele>0.00000</ele>
        <time>2025-04-02T00:13:41Z</time>
      </trkpt>
      <trkpt lat="51.0164275" lon="4.2982721">
        <ele>0.00000</ele>
        <time>2025-04-02T00:13:48Z</time>
      </trkpt>
      <trkpt lat="51.0163195" lon="4.2981219">
        <ele>0.00000</ele>
        <time>2025-04-02T00:13:50Z</time>
      </trkpt>
      <trkpt lat="51.0161306" lon="4.2978752">
        <ele>0.00000</ele>
        <time>2025-04-02T00:13:54Z</time>
      </trkpt>
      <trkpt lat="51.0148616" lon="4.2947745">
        <ele>0.00000</ele>
        <time>2025-04-02T00:14:32Z</time>
      </trkpt>
      <trkpt lat="51.0158066" lon="4.2936373">
        <ele>0.00000</ele>
        <time>2025-04-02T00:14:51Z</time>
      </trkpt>
      <trkpt lat="51.01553" lon="4.29308">
        <ele>0.00000</ele>
        <time>2025-04-02T00:14:58Z</time>
      </trkpt>
      <trkpt lat="51.0130122" lon="4.2886162">
        <ele>0.00000</ele>
        <time>2025-04-02T00:15:59Z</time>
      </trkpt>
      <trkpt lat="51.01283" lon="4.28857">
        <ele>0.00000</ele>
        <time>2025-04-02T00:16:02Z</time>
      </trkpt>
      <trkpt lat="51.0124992" lon="4.2884982">
        <ele>0.00000</ele>
        <time>2025-04-02T00:16:07Z</time>
      </trkpt>
      <trkpt lat="51.0117162" lon="4.288305">
        <ele>0.00000</ele>
        <time>2025-04-02T00:16:20Z</time>
      </trkpt>
      <trkpt lat="51.0116351" lon="4.2881978">
        <ele>0.00000</ele>
        <time>2025-04-02T00:16:21Z</time>
      </trkpt>
      <trkpt lat="51.0113921" lon="4.2878008">
        <ele>0.00000</ele>
        <time>2025-04-02T00:16:27Z</time>
      </trkpt>
      <trkpt lat="51.0113111" lon="4.2877364">
        <ele>0.00000</ele>
        <time>2025-04-02T00:16:29Z</time>
      </trkpt>
      <trkpt lat="51.0106631" lon="4.2874897">
        <ele>0.00000</ele>
        <time>2025-04-02T00:16:39Z</time>
      </trkpt>
      <trkpt lat="51.0103998" lon="4.2873073">
        <ele>0.00000</ele>
        <time>2025-04-02T00:16:44Z</time>
      </trkpt>
      <trkpt lat="51.01054" lon="4.28676">
        <ele>0.00000</ele>
        <time>2025-04-02T00:16:50Z</time>
      </trkpt>
      <trkpt lat="51.01057" lon="4.28623">
        <ele>0.00000</ele>
        <time>2025-04-02T00:16:55Z</time>
      </trkpt>
      <trkpt lat="51.01053" lon="4.2859">
        <ele>0.00000</ele>
        <time>2025-04-02T00:16:59Z</time>
      </trkpt>
      <trkpt lat="51.01041" lon="4.28553">
        <ele>0.00000</ele>
        <time>2025-04-02T00:17:03Z</time>
      </trkpt>
      <trkpt lat="51.01018" lon="4.285">
        <ele>0.00000</ele>
        <time>2025-04-02T00:17:09Z</time>
      </trkpt>
      <trkpt lat="51.0097181" lon="4.284271">
        <ele>0.00000</ele>
        <time>2025-04-02T00:17:20Z</time>
      </trkpt>
      <trkpt lat="51.009394" lon="4.2838848">
        <ele>0.00000</ele>
        <time>2025-04-02T00:17:26Z</time>
      </trkpt>
      <trkpt lat="51.0090633" lon="4.2835951">
        <ele>0.00000</ele>
        <time>2025-04-02T00:17:32Z</time>
      </trkpt>
      <trkpt lat="51.008962" lon="4.28352">
        <ele>0.00000</ele>
        <time>2025-04-02T00:17:34Z</time>
      </trkpt>
      <trkpt lat="51.008692" lon="4.2834449">
        <ele>0.00000</ele>
        <time>2025-04-02T00:17:39Z</time>
      </trkpt>
      <trkpt lat="51.0083072" lon="4.2834663">
        <ele>0.00000</ele>
        <time>2025-04-02T00:17:45Z</time>
      </trkpt>
      <trkpt lat="51.0078009" lon="4.2835951">
        <ele>0.00000</ele>
        <time>2025-04-02T00:17:53Z</time>
      </trkpt>
      <trkpt lat="51.00751" lon="4.28371">
        <ele>0.00000</ele>
        <time>2025-04-02T00:17:58Z</time>
      </trkpt>
      <trkpt lat="51.0068828" lon="4.2840779">
        <ele>0.00000</ele>
        <time>2025-04-02T00:18:09Z</time>
      </trkpt>
      <trkpt lat="51.0065925" lon="4.2841744">
        <ele>0.00000</ele>
        <time>2025-04-02T00:18:13Z</time>
      </trkpt>
      <trkpt lat="51.00645" lon="4.28361">
        <ele>0.00000</ele>
        <time>2025-04-02T00:18:20Z</time>
      </trkpt>
      <trkpt lat="51.0061064" lon="4.2830265">
        <ele>0.00000</ele>
        <time>2025-04-02T00:18:28Z</time>
      </trkpt>
      <trkpt lat="51.0059106" lon="4.2826509">
        <ele>0.00000</ele>
        <time>2025-04-02T00:18:33Z</time>
      </trkpt>
      <trkpt lat="51.00579" lon="4.28207">
        <ele>0.00000</ele>
        <time>2025-04-02T00:18:39Z</time>
      </trkpt>
      <trkpt lat="51.00579" lon="4.28132">
        <ele>0.00000</ele>
        <time>2025-04-02T00:18:46Z</time>
      </trkpt>
      <trkpt lat="51.00651" lon="4.27845">
        <ele>0.00000</ele>
        <time>2025-04-02T00:19:18Z</time>
      </trkpt>
      <trkpt lat="51.00651" lon="4.27839">
        <ele>0.00000</ele>
        <time>2025-04-02T00:19:18Z</time>
      </trkpt>
      <trkpt lat="51.00647" lon="4.27833">
        <ele>0.00000</ele>
        <time>2025-04-02T00:19:19Z</time>
      </trkpt>
      <trkpt lat="51.0061942" lon="4.2780483">
        <ele>0.00000</ele>
        <time>2025-04-02T00:19:24Z</time>
      </trkpt>
      <trkpt lat="51.0061469" lon="4.2779517">
        <ele>0.00000</ele>
        <time>2025-04-02T00:19:26Z</time>
      </trkpt>
      <trkpt lat="51.0061672" lon="4.2778337">
        <ele>0.00000</ele>
        <time>2025-04-02T00:19:27Z</time>
      </trkpt>
      <trkpt lat="51.00622" lon="4.27766">
        <ele>0.00000</ele>
        <time>2025-04-02T00:19:29Z</time>
      </trkpt>
      <trkpt lat="51.00627" lon="4.27739">
        <ele>0.00000</ele>
        <time>2025-04-02T00:19:32Z</time>
      </trkpt>
      <trkpt lat="51.00664" lon="4.2763">
        <ele>0.00000</ele>
        <time>2025-04-02T00:19:44Z</time>
      </trkpt>
      <trkpt lat="51.00665" lon="4.27623">
        <ele>0.00000</ele>
        <time>2025-04-02T00:19:45Z</time>
      </trkpt>
      <trkpt lat="51.00661" lon="4.27616">
        <ele>0.00000</ele>
        <time>2025-04-02T00:19:46Z</time>
      </trkpt>
      <trkpt lat="51.00605" lon="4.27601">
        <ele>0.00000</ele>
        <time>2025-04-02T00:19:55Z</time>
      </trkpt>
      <trkpt lat="51.00602" lon="4.27592">
        <ele>0.00000</ele>
        <time>2025-04-02T00:19:56Z</time>
      </trkpt>
      <trkpt lat="51.0059" lon="4.27505">
        <ele>0.00000</ele>
        <time>2025-04-02T00:20:05Z</time>
      </trkpt>
      <trkpt lat="51.00506" lon="4.27357">
        <ele>0.00000</ele>
        <time>2025-04-02T00:20:25Z</time>
      </trkpt>
      <trkpt lat="51.00475" lon="4.27319">
        <ele>0.00000</ele>
        <time>2025-04-02T00:20:32Z</time>
      </trkpt>
      <trkpt lat="51.00457" lon="4.27308">
        <ele>0.00000</ele>
        <time>2025-04-02T00:20:35Z</time>
      </trkpt>
      <trkpt lat="51.0039" lon="4.27282">
        <ele>0.00000</ele>
        <time>2025-04-02T00:20:46Z</time>
      </trkpt>
      <trkpt lat="51.00214" lon="4.27137">
        <ele>0.00000</ele>
        <time>2025-04-02T00:21:18Z</time>
      </trkpt>
      <trkpt lat="51.00203" lon="4.27118">
        <ele>0.00000</ele>
        <time>2025-04-02T00:21:20Z</time>
      </trkpt>
      <trkpt lat="51.0017991" lon="4.2708921">
        <ele>0.00000</ele>
        <time>2025-04-02T00:21:25Z</time>
      </trkpt>
      <trkpt lat="51.0018058" lon="4.2705059">
        <ele>0.00000</ele>
        <time>2025-04-02T00:21:29Z</time>
      </trkpt>
      <trkpt lat="51.0017113" lon="4.2704737">
        <ele>0.00000</ele>
        <time>2025-04-02T00:21:31Z</time>
      </trkpt>
      <trkpt lat="51.00037" lon="4.27058">
        <ele>0.00000</ele>
        <time>2025-04-02T00:21:52Z</time>
      </trkpt>
      <trkpt lat="51.0003947" lon="4.2707741">
        <ele>0.00000</ele>
        <time>2025-04-02T00:21:54Z</time>
      </trkpt>
      <trkpt lat="51.0005748" lon="4.2718788">
        <ele>0.00000</ele>
        <time>2025-04-02T00:22:06Z</time>
      </trkpt>
      <trkpt lat="51.0002522" lon="4.2719826">
        <ele>0.00000</ele>
        <time>2025-04-02T00:22:11Z</time>
      </trkpt>
      <trkpt lat="50.99995" lon="4.27192">
        <ele>0.00000</ele>
        <time>2025-04-02T00:22:16Z</time>
      </trkpt>
      <trkpt lat="50.99976" lon="4.27197">
        <ele>0.00000</ele>
        <time>2025-04-02T00:22:19Z</time>
      </trkpt>
      <trkpt lat="50.99952" lon="4.27215">
        <ele>0.00000</ele>
        <time>2025-04-02T00:22:23Z</time>
      </trkpt>
      <trkpt lat="50.99935" lon="4.27235">
        <ele>0.00000</ele>
        <time>2025-04-02T00:22:27Z</time>
      </trkpt>
      <trkpt lat="50.99919" lon="4.27242">
        <ele>0.00000</ele>
        <time>2025-04-02T00:22:29Z</time>
      </trkpt>
      <trkpt lat="50.99901" lon="4.27241">
        <ele>0.00000</ele>
        <time>2025-04-02T00:22:32Z</time>
      </trkpt>
      <trkpt lat="50.99901" lon="4.27235">
        <ele>0.00000</ele>
        <time>2025-04-02T00:22:33Z</time>
      </trkpt>
      <trkpt lat="50.99881" lon="4.2714">
        <ele>0.00000</ele>
        <time>2025-04-02T00:22:43Z</time>
      </trkpt>
      <trkpt lat="50.99874" lon="4.27134">
        <ele>0.00000</ele>
        <time>2025-04-02T00:22:44Z</time>
      </trkpt>
      <trkpt lat="50.9987" lon="4.2714">
        <ele>0.00000</ele>
        <time>2025-04-02T00:22:45Z</time>
      </trkpt>
      <trkpt lat="50.99829" lon="4.27155">
        <ele>0.00000</ele>
        <time>2025-04-02T00:22:52Z</time>
      </trkpt>
      <trkpt lat="50.99812" lon="4.2715">
        <ele>0.00000</ele>
        <time>2025-04-02T00:22:55Z</time>
      </trkpt>
      <trkpt lat="50.99753" lon="4.27175">
        <ele>0.00000</ele>
        <time>2025-04-02T00:23:05Z</time>
      </trkpt>
      <trkpt lat="50.9972145" lon="4.2715144">
        <ele>0.00000</ele>
        <time>2025-04-02T00:23:10Z</time>
      </trkpt>
      <trkpt lat="50.9969579" lon="4.2712569">
        <ele>0.00000</ele>
        <time>2025-04-02T00:23:15Z</time>
      </trkpt>
      <trkpt lat="50.9964853" lon="4.2711067">
        <ele>0.00000</ele>
        <time>2025-04-02T00:23:23Z</time>
      </trkpt>
      <trkpt lat="50.996" lon="4.26823">
        <ele>0.00000</ele>
        <time>2025-04-02T00:23:53Z</time>
      </trkpt>
      <trkpt lat="50.9960058" lon="4.2680168">
        <ele>0.00000</ele>
        <time>2025-04-02T00:23:55Z</time>
      </trkpt>
      <trkpt lat="50.9967486" lon="4.267813">
        <ele>0.00000</ele>
        <time>2025-04-02T00:24:07Z</time>
      </trkpt>
      <trkpt lat="50.9968499" lon="4.2677486">
        <ele>0.00000</ele>
        <time>2025-04-02T00:24:09Z</time>
      </trkpt>
      <trkpt lat="50.9981463" lon="4.2682207">
        <ele>0.00000</ele>
        <time>2025-04-02T00:24:30Z</time>
      </trkpt>
      <trkpt lat="50.9982273" lon="4.2682528">
        <ele>0.00000</ele>
        <time>2025-04-02T00:24:32Z</time>
      </trkpt>
      <trkpt lat="50.9983759" lon="4.268285">
        <ele>0.00000</ele>
        <time>2025-04-02T00:24:34Z</time>
      </trkpt>
      <trkpt lat="50.9975724" lon="4.2642295">
        <ele>0.00000</ele>
        <time>2025-04-02T00:25:17Z</time>
      </trkpt>
      <trkpt lat="50.9984164" lon="4.2635965">
        <ele>0.00000</ele>
        <time>2025-04-02T00:25:32Z</time>
      </trkpt>
      <trkpt lat="50.9987067" lon="4.2630601">
        <ele>0.00000</ele>
        <time>2025-04-02T00:25:39Z</time>
      </trkpt>
      <trkpt lat="50.9991929" lon="4.2612576">
        <ele>0.00000</ele>
        <time>2025-04-02T00:25:59Z</time>
      </trkpt>
      <trkpt lat="50.9992334" lon="4.2611504">
        <ele>0.00000</ele>
        <time>2025-04-02T00:26:01Z</time>
      </trkpt>
      <trkpt lat="50.99931" lon="4.26111">
        <ele>0.00000</ele>
        <time>2025-04-02T00:26:02Z</time>
      </trkpt>
      <trkpt lat="51.0009079" lon="4.2619228">
        <ele>0.00000</ele>
        <time>2025-04-02T00:26:29Z</time>
      </trkpt>
      <trkpt lat="51.0023325" lon="4.2624271">
        <ele>0.00000</ele>
        <time>2025-04-02T00:26:52Z</time>
      </trkpt>
      <trkpt lat="51.00243" lon="4.26199">
        <ele>0.00000</ele>
        <time>2025-04-02T00:26:57Z</time>
      </trkpt>
      <trkpt lat="51.0026" lon="4.26141">
        <ele>0.00000</ele>
        <time>2025-04-02T00:27:03Z</time>
      </trkpt>
      <trkpt lat="51.0026025" lon="4.2610967">
        <ele>0.00000</ele>
        <time>2025-04-02T00:27:07Z</time>
      </trkpt>
      <trkpt lat="51.0025823" lon="4.2608821">
        <ele>0.00000</ele>
        <time>2025-04-02T00:27:09Z</time>
      </trkpt>
      <trkpt lat="51.00246" lon="4.26053">
        <ele>0.00000</ele>
        <time>2025-04-02T00:27:13Z</time>
      </trkpt>
      <trkpt lat="51.0021772" lon="4.2601204">
        <ele>0.00000</ele>
        <time>2025-04-02T00:27:19Z</time>
      </trkpt>
      <trkpt lat="51.0020557" lon="4.2598522">
        <ele>0.00000</ele>
        <time>2025-04-02T00:27:22Z</time>
      </trkpt>
      <trkpt lat="51.0019004" lon="4.2593157">
        <ele>0.00000</ele>
        <time>2025-04-02T00:27:28Z</time>
      </trkpt>
      <trkpt lat="51.0018531" lon="4.25879">
        <ele>0.00000</ele>
        <time>2025-04-02T00:27:34Z</time>
      </trkpt>
      <trkpt lat="51.0018599" lon="4.2585647">
        <ele>0.00000</ele>
        <time>2025-04-02T00:27:36Z</time>
      </trkpt>
      <trkpt lat="51.00207" lon="4.25741">
        <ele>0.00000</ele>
        <time>2025-04-02T00:27:48Z</time>
      </trkpt>
      <trkpt lat="51.0020962" lon="4.256773">
        <ele>0.00000</ele>
        <time>2025-04-02T00:27:55Z</time>
      </trkpt>
      <trkpt lat="51.0022244" lon="4.2567515">
        <ele>0.00000</ele>
        <time>2025-04-02T00:27:57Z</time>
      </trkpt>
      <trkpt lat="51.00262" lon="4.25677">
        <ele>0.00000</ele>
        <time>2025-04-02T00:28:03Z</time>
      </trkpt>
      <trkpt lat="51.0028" lon="4.25676">
        <ele>0.00000</ele>
        <time>2025-04-02T00:28:06Z</time>
      </trkpt>
      <trkpt lat="51.0029063" lon="4.2567515">
        <ele>0.00000</ele>
        <time>2025-04-02T00:28:08Z</time>
      </trkpt>
      <trkpt lat="51.0032034" lon="4.2571914">
        <ele>0.00000</ele>
        <time>2025-04-02T00:28:14Z</time>
      </trkpt>
      <trkpt lat="51.0032844" lon="4.2574167">
        <ele>0.00000</ele>
        <time>2025-04-02T00:28:17Z</time>
      </trkpt>
      <trkpt lat="51.0033722" lon="4.2579424">
        <ele>0.00000</ele>
        <time>2025-04-02T00:28:22Z</time>
      </trkpt>
      <trkpt lat="51.003433" lon="4.2580819">
        <ele>0.00000</ele>
        <time>2025-04-02T00:28:24Z</time>
      </trkpt>
      <trkpt lat="51.0038245" lon="4.2585218">
        <ele>0.00000</ele>
        <time>2025-04-02T00:28:32Z</time>
      </trkpt>
      <trkpt lat="51.0044321" lon="4.2589295">
        <ele>0.00000</ele>
        <time>2025-04-02T00:28:42Z</time>
      </trkpt>
      <trkpt lat="51.00519" lon="4.25984">
        <ele>0.00000</ele>
        <time>2025-04-02T00:28:58Z</time>
      </trkpt>
      <trkpt lat="51.0053" lon="4.26001">
        <ele>0.00000</ele>
        <time>2025-04-02T00:29:00Z</time>
      </trkpt>
      <trkpt lat="51.00538" lon="4.26022">
        <ele>0.00000</ele>
        <time>2025-04-02T00:29:03Z</time>
      </trkpt>
      <trkpt lat="51.00547" lon="4.26059">
        <ele>0.00000</ele>
        <time>2025-04-02T00:29:07Z</time>
      </trkpt>
      <trkpt lat="51.0055866" lon="4.2612684">
        <ele>0.00000</ele>
        <time>2025-04-02T00:29:14Z</time>
      </trkpt>
      <trkpt lat="51.0056676" lon="4.2615366">
        <ele>0.00000</ele>
        <time>2025-04-02T00:29:17Z</time>
      </trkpt>
      <trkpt lat="51.0068085" lon="4.2632532">
        <ele>0.00000</ele>
        <time>2025-04-02T00:29:42Z</time>
      </trkpt>
      <trkpt lat="51.0071191" lon="4.2629743">
        <ele>0.00000</ele>
        <time>2025-04-02T00:29:48Z</time>
      </trkpt>
      <trkpt lat="51.0071933" lon="4.2630172">
        <ele>0.00000</ele>
        <time>2025-04-02T00:29:49Z</time>
      </trkpt>
      <trkpt lat="51.0079629" lon="4.2644012">
        <ele>0.00000</ele>
        <time>2025-04-02T00:30:08Z</time>
      </trkpt>
      <trkpt lat="51.0084557" lon="4.2651415">
        <ele>0.00000</ele>
        <time>2025-04-02T00:30:19Z</time>
      </trkpt>
      <trkpt lat="51.0086785" lon="4.2653883">
        <ele>0.00000</ele>
        <time>2025-04-02T00:30:23Z</time>
      </trkpt>
      <trkpt lat="51.0088877" lon="4.2655492">
        <ele>0.00000</ele>
        <time>2025-04-02T00:30:27Z</time>
      </trkpt>
      <trkpt lat="51.009232" lon="4.2659354">
        <ele>0.00000</ele>
        <time>2025-04-02T00:30:34Z</time>
      </trkpt>
      <trkpt lat="51.0094278" lon="4.2660964">
        <ele>0.00000</ele>
        <time>2025-04-02T00:30:37Z</time>
      </trkpt>
      <trkpt lat="51.0102918" lon="4.2668366">
        <ele>0.00000</ele>
        <time>2025-04-02T00:30:53Z</time>
      </trkpt>
      <trkpt lat="51.0112436" lon="4.2676735">
        <ele>0.00000</ele>
        <time>2025-04-02T00:31:10Z</time>
      </trkpt>
      <trkpt lat="51.0113179" lon="4.2677164">
        <ele>0.00000</ele>
        <time>2025-04-02T00:31:12Z</time>
      </trkpt>
      <trkpt lat="51.0113921" lon="4.2676735">
        <ele>0.00000</ele>
        <time>2025-04-02T00:31:13Z</time>
      </trkpt>
      <trkpt lat="51.01206" lon="4.26674">
        <ele>0.00000</ele>
        <time>2025-04-02T00:31:27Z</time>
      </trkpt>
      <trkpt lat="51.0121347" lon="4.2666543">
        <ele>0.00000</ele>
        <time>2025-04-02T00:31:29Z</time>
      </trkpt>
      <trkpt lat="51.0123507" lon="4.2666221">
        <ele>0.00000</ele>
        <time>2025-04-02T00:31:32Z</time>
      </trkpt>
      <trkpt lat="51.01258" lon="4.26661">
        <ele>0.00000</ele>
        <time>2025-04-02T00:31:36Z</time>
      </trkpt>
      <trkpt lat="51.0128569" lon="4.2665899">
        <ele>0.00000</ele>
        <time>2025-04-02T00:31:40Z</time>
      </trkpt>
      <trkpt lat="51.0129244" lon="4.2666113">
        <ele>0.00000</ele>
        <time>2025-04-02T00:31:42Z</time>
      </trkpt>
      <trkpt lat="51.01299" lon="4.2667">
        <ele>0.00000</ele>
        <time>2025-04-02T00:31:43Z</time>
      </trkpt>
      <trkpt lat="51.0131809" lon="4.2672443">
        <ele>0.00000</ele>
        <time>2025-04-02T00:31:49Z</time>
      </trkpt>
      <trkpt lat="51.0133159" lon="4.2674482">
        <ele>0.00000</ele>
        <time>2025-04-02T00:31:52Z</time>
      </trkpt>
      <trkpt lat="51.0135117" lon="4.267695">
        <ele>0.00000</ele>
        <time>2025-04-02T00:31:56Z</time>
      </trkpt>
      <trkpt lat="51.0137074" lon="4.2678344">
        <ele>0.00000</ele>
        <time>2025-04-02T00:32:00Z</time>
      </trkpt>
      <trkpt lat="51.0140854" lon="4.268049">
        <ele>0.00000</ele>
        <time>2025-04-02T00:32:06Z</time>
      </trkpt>
      <trkpt lat="51.0142001" lon="4.2681134">
        <ele>0.00000</ele>
        <time>2025-04-02T00:32:08Z</time>
      </trkpt>
      <trkpt lat="51.0148819" lon="4.2688537">
        <ele>0.00000</ele>
        <time>2025-04-02T00:32:21Z</time>
      </trkpt>
      <trkpt lat="51.0150844" lon="4.269079">
        <ele>0.00000</ele>
        <time>2025-04-02T00:32:25Z</time>
      </trkpt>
      <trkpt lat="51.01484" lon="4.27002">
        <ele>0.00000</ele>
        <time>2025-04-02T00:32:36Z</time>
      </trkpt>
      <trkpt lat="51.0122629" lon="4.2759347">
        <ele>0.00000</ele>
        <time>2025-04-02T00:33:49Z</time>
      </trkpt>
      <trkpt lat="51.0122224" lon="4.2761815">
        <ele>0.00000</ele>
        <time>2025-04-02T00:33:51Z</time>
      </trkpt>
      <trkpt lat="51.01184" lon="4.27964">
        <ele>0.00000</ele>
        <time>2025-04-02T00:34:27Z</time>
      </trkpt>
      <trkpt lat="51.01181" lon="4.27972">
        <ele>0.00000</ele>
        <time>2025-04-02T00:34:28Z</time>
      </trkpt>
      <trkpt lat="51.01184" lon="4.27982">
        <ele>0.00000</ele>
        <time>2025-04-02T00:34:29Z</time>
      </trkpt>
      <trkpt lat="51.01184" lon="4.27993">
        <ele>0.00000</ele>
        <time>2025-04-02T00:34:30Z</time>
      </trkpt>
      <trkpt lat="51.01174" lon="4.28028">
        <ele>0.00000</ele>
        <time>2025-04-02T00:34:34Z</time>
      </trkpt>
      <trkpt lat="51.01111" lon="4.28506">
        <ele>0.00000</ele>
        <time>2025-04-02T00:35:23Z</time>
      </trkpt>
      <trkpt lat="51.0112031" lon="4.2849898">
        <ele>0.00000</ele>
        <time>2025-04-02T00:35:25Z</time>
      </trkpt>
      <trkpt lat="51.0112909" lon="4.2849147">
        <ele>0.00000</ele>
        <time>2025-04-02T00:35:26Z</time>
      </trkpt>
      <trkpt lat="51.01322" lon="4.28437">
        <ele>0.00000</ele>
        <time>2025-04-02T00:35:58Z</time>
      </trkpt>
      <trkpt lat="51.01329" lon="4.2843">
        <ele>0.00000</ele>
        <time>2025-04-02T00:35:59Z</time>
      </trkpt>
      <trkpt lat="51.01335" lon="4.28419">
        <ele>0.00000</ele>
        <time>2025-04-02T00:36:01Z</time>
      </trkpt>
      <trkpt lat="51.0138289" lon="4.2828012">
        <ele>0.00000</ele>
        <time>2025-04-02T00:36:17Z</time>
      </trkpt>
      <trkpt lat="51.0139032" lon="4.282726">
        <ele>0.00000</ele>
        <time>2025-04-02T00:36:18Z</time>
      </trkpt>
      <trkpt lat="51.0139909" lon="4.2826831">
        <ele>0.00000</ele>
        <time>2025-04-02T00:36:20Z</time>
      </trkpt>
      <trkpt lat="51.0157796" lon="4.2826724">
        <ele>0.00000</ele>
        <time>2025-04-02T00:36:48Z</time>
      </trkpt>
      <trkpt lat="51.0159551" lon="4.2826831">
        <ele>0.00000</ele>
        <time>2025-04-02T00:36:51Z</time>
      </trkpt>
      <trkpt lat="51.0175074" lon="4.2835307">
        <ele>0.00000</ele>
        <time>2025-04-02T00:37:18Z</time>
      </trkpt>
      <trkpt lat="51.0176154" lon="4.2834985">
        <ele>0.00000</ele>
        <time>2025-04-02T00:37:19Z</time>
      </trkpt>
      <trkpt lat="51.0176897" lon="4.2834127">
        <ele>0.00000</ele>
        <time>2025-04-02T00:37:21Z</time>
      </trkpt>
      <trkpt lat="51.0178651" lon="4.2830908">
        <ele>0.00000</ele>
        <time>2025-04-02T00:37:25Z</time>
      </trkpt>
      <trkpt lat="51.0181486" lon="4.2823291">
        <ele>0.00000</ele>
        <time>2025-04-02T00:37:34Z</time>
      </trkpt>
      <trkpt lat="51.0184321" lon="4.2809343">
        <ele>0.00000</ele>
        <time>2025-04-02T00:37:49Z</time>
      </trkpt>
      <trkpt lat="51.0184996" lon="4.2806554">
        <ele>0.00000</ele>
        <time>2025-04-02T00:37:52Z</time>
      </trkpt>
      <trkpt lat="51.0186346" lon="4.2804193">
        <ele>0.00000</ele>
        <time>2025-04-02T00:37:55Z</time>
      </trkpt>
      <trkpt lat="51.0194445" lon="4.2795074">
        <ele>0.00000</ele>
        <time>2025-04-02T00:38:11Z</time>
      </trkpt>
      <trkpt lat="51.0196469" lon="4.2793572">
        <ele>0.00000</ele>
        <time>2025-04-02T00:38:15Z</time>
      </trkpt>
      <trkpt lat="51.0205445" lon="4.2788851">
        <ele>0.00000</ele>
        <time>2025-04-02T00:38:30Z</time>
      </trkpt>
      <trkpt lat="51.0206998" lon="4.2787778">
        <ele>0.00000</ele>
        <time>2025-04-02T00:38:33Z</time>
      </trkpt>
      <trkpt lat="51.0216108" lon="4.2776942">
        <ele>0.00000</ele>
        <time>2025-04-02T00:38:51Z</time>
      </trkpt>
      <trkpt lat="51.0217391" lon="4.2775762">
        <ele>0.00000</ele>
        <time>2025-04-02T00:38:53Z</time>
      </trkpt>
      <trkpt lat="51.0232643" lon="4.2769432">
        <ele>0.00000</ele>
        <time>2025-04-02T00:39:19Z</time>
      </trkpt>
      <trkpt lat="51.023379" lon="4.2768681">
        <ele>0.00000</ele>
        <time>2025-04-02T00:39:21Z</time>
      </trkpt>
      <trkpt lat="51.023487" lon="4.2767501">
        <ele>0.00000</ele>
        <time>2025-04-02T00:39:23Z</time>
      </trkpt>
      <trkpt lat="51.0243238" lon="4.2754304">
        <ele>0.00000</ele>
        <time>2025-04-02T00:39:42Z</time>
      </trkpt>
      <trkpt lat="51.0258893" lon="4.2720294">
        <ele>0.00000</ele>
        <time>2025-04-02T00:40:25Z</time>
      </trkpt>
      <trkpt lat="51.0265304" lon="4.2697871">
        <ele>0.00000</ele>
        <time>2025-04-02T00:40:49Z</time>
      </trkpt>
      <trkpt lat="51.0265507" lon="4.2692077">
        <ele>0.00000</ele>
        <time>2025-04-02T00:40:55Z</time>
      </trkpt>
      <trkpt lat="51.0265776" lon="4.2690039">
        <ele>0.00000</ele>
        <time>2025-04-02T00:40:57Z</time>
      </trkpt>
      <trkpt lat="51.0266384" lon="4.2689288">
        <ele>0.00000</ele>
        <time>2025-04-02T00:40:59Z</time>
      </trkpt>
      <trkpt lat="51.0268071" lon="4.2686498">
        <ele>0.00000</ele>
        <time>2025-04-02T00:41:03Z</time>
      </trkpt>
      <trkpt lat="51.026942" lon="4.2684567">
        <ele>0.00000</ele>
        <time>2025-04-02T00:41:06Z</time>
      </trkpt>
      <trkpt lat="51.0272389" lon="4.2678666">
        <ele>0.00000</ele>
        <time>2025-04-02T00:41:13Z</time>
      </trkpt>
      <trkpt lat="51.0276168" lon="4.2675233">
        <ele>0.00000</ele>
        <time>2025-04-02T00:41:20Z</time>
      </trkpt>
      <trkpt lat="51.0280082" lon="4.2672765">
        <ele>0.00000</ele>
        <time>2025-04-02T00:41:27Z</time>
      </trkpt>
      <trkpt lat="51.0286155" lon="4.2670941">
        <ele>0.00000</ele>
        <time>2025-04-02T00:41:37Z</time>
      </trkpt>
      <trkpt lat="51.0288989" lon="4.2670834">
        <ele>0.00000</ele>
        <time>2025-04-02T00:41:41Z</time>
      </trkpt>
      <trkpt lat="51.0296479" lon="4.2671156">
        <ele>0.00000</ele>
        <time>2025-04-02T00:41:54Z</time>
      </trkpt>
      <trkpt lat="51.0303024" lon="4.2672014">
        <ele>0.00000</ele>
        <time>2025-04-02T00:42:04Z</time>
      </trkpt>
      <trkpt lat="51.0304913" lon="4.2672122">
        <ele>0.00000</ele>
        <time>2025-04-02T00:42:07Z</time>
      </trkpt>
      <trkpt lat="51.0316789" lon="4.2647767">
        <ele>0.00000</ele>
        <time>2025-04-02T00:42:38Z</time>
      </trkpt>
      <trkpt lat="51.0321579" lon="4.2639613">
        <ele>0.00000</ele>
        <time>2025-04-02T00:42:50Z</time>
      </trkpt>
      <trkpt lat="51.0324615" lon="4.2635322">
        <ele>0.00000</ele>
        <time>2025-04-02T00:42:56Z</time>
      </trkpt>
      <trkpt lat="51.03261" lon="4.2636824">
        <ele>0.00000</ele>
        <time>2025-04-02T00:42:59Z</time>
      </trkpt>
      <trkpt lat="51.03275" lon="4.2638">
        <ele>0.00000</ele>
        <time>2025-04-02T00:43:02Z</time>
      </trkpt>
      <trkpt lat="51.0330958" lon="4.2640793">
        <ele>0.00000</ele>
        <time>2025-04-02T00:43:08Z</time>
      </trkpt>
      <trkpt lat="51.0332374" lon="4.2642617">
        <ele>0.00000</ele>
        <time>2025-04-02T00:43:11Z</time>
      </trkpt>
      <trkpt lat="51.0355989" lon="4.2691112">
        <ele>0.00000</ele>
        <time>2025-04-02T00:44:13Z</time>
      </trkpt>
      <trkpt lat="51.0360644" lon="4.269948">
        <ele>0.00000</ele>
        <time>2025-04-02T00:44:24Z</time>
      </trkpt>
      <trkpt lat="51.03775" lon="4.27348">
        <ele>0.00000</ele>
        <time>2025-04-02T00:45:09Z</time>
      </trkpt>
      <trkpt lat="51.0378117" lon="4.2734885">
        <ele>0.00000</ele>
        <time>2025-04-02T00:45:10Z</time>
      </trkpt>
      <trkpt lat="51.0379331" lon="4.2734993">
        <ele>0.00000</ele>
        <time>2025-04-02T00:45:12Z</time>
      </trkpt>
      <trkpt lat="51.0397209" lon="4.2729521">
        <ele>0.00000</ele>
        <time>2025-04-02T00:45:41Z</time>
      </trkpt>
      <trkpt lat="51.0398086" lon="4.2730057">
        <ele>0.00000</ele>
        <time>2025-04-02T00:45:43Z</time>
      </trkpt>
      <trkpt lat="51.0403145" lon="4.27616">
        <ele>0.00000</ele>
        <time>2025-04-02T00:46:16Z</time>
      </trkpt>
      <trkpt lat="51.0398356" lon="4.2823076">
        <ele>0.00000</ele>
        <time>2025-04-02T00:47:18Z</time>
      </trkpt>
      <trkpt lat="51.0396399" lon="4.2832947">
        <ele>0.00000</ele>
        <time>2025-04-02T00:47:29Z</time>
      </trkpt>
      <trkpt lat="51.0396737" lon="4.2834449">
        <ele>0.00000</ele>
        <time>2025-04-02T00:47:30Z</time>
      </trkpt>
      <trkpt lat="51.0401257" lon="4.2848611">
        <ele>0.00000</ele>
        <time>2025-04-02T00:47:46Z</time>
      </trkpt>
      <trkpt lat="51.0401864" lon="4.2851293">
        <ele>0.00000</ele>
        <time>2025-04-02T00:47:49Z</time>
      </trkpt>
      <trkpt lat="51.0401796" lon="4.2852259">
        <ele>0.00000</ele>
        <time>2025-04-02T00:47:50Z</time>
      </trkpt>
      <trkpt lat="51.0401459" lon="4.2853224">
        <ele>0.00000</ele>
        <time>2025-04-02T00:47:51Z</time>
      </trkpt>
      <trkpt lat="51.04007" lon="4.28542">
        <ele>0.00000</ele>
        <time>2025-04-02T00:47:53Z</time>
      </trkpt>
      <trkpt lat="51.039559" lon="4.2857838">
        <ele>0.00000</ele>
        <time>2025-04-02T00:48:02Z</time>
      </trkpt>
      <trkpt lat="51.0395118" lon="4.2858696">
        <ele>0.00000</ele>
        <time>2025-04-02T00:48:03Z</time>
      </trkpt>
      <trkpt lat="51.0395253" lon="4.2860413">
        <ele>0.00000</ele>
        <time>2025-04-02T00:48:05Z</time>
      </trkpt>
      <trkpt lat="51.0398626" lon="4.2883265">
        <ele>0.00000</ele>
        <time>2025-04-02T00:48:29Z</time>
      </trkpt>
      <trkpt lat="51.0383919" lon="4.2897856">
        <ele>0.00000</ele>
        <time>2025-04-02T00:48:57Z</time>
      </trkpt>
      <trkpt lat="51.03919" lon="4.29635">
        <ele>0.00000</ele>
        <time>2025-04-02T00:50:04Z</time>
      </trkpt>
      <trkpt lat="51.03925" lon="4.2977">
        <ele>0.00000</ele>
        <time>2025-04-02T00:50:18Z</time>
      </trkpt>
      <trkpt lat="51.0390463" lon="4.2993879">
        <ele>0.00000</ele>
        <time>2025-04-02T00:50:35Z</time>
      </trkpt>
      <trkpt lat="51.0391812" lon="4.2994094">
        <ele>0.00000</ele>
        <time>2025-04-02T00:50:37Z</time>
      </trkpt>
      <trkpt lat="51.0393903" lon="4.2994201">
        <ele>0.00000</ele>
        <time>2025-04-02T00:50:41Z</time>
      </trkpt>
      <trkpt lat="51.0396602" lon="4.2994308">
        <ele>0.00000</ele>
        <time>2025-04-02T00:50:45Z</time>
      </trkpt>
      <trkpt lat="51.0399435" lon="4.299463">
        <ele>0.00000</ele>
        <time>2025-04-02T00:50:50Z</time>
      </trkpt>
      <trkpt lat="51.042878" lon="4.2999136">
        <ele>0.00000</ele>
        <time>2025-04-02T00:51:37Z</time>
      </trkpt>
      <trkpt lat="51.0474674" lon="4.3007426">
        <ele>0.00000</ele>
        <time>2025-04-02T00:52:51Z</time>
      </trkpt>
      <trkpt lat="51.047678" lon="4.3008146">
        <ele>0.00000</ele>
        <time>2025-04-02T00:52:55Z</time>
      </trkpt>
      <trkpt lat="51.0477953" lon="4.3008471">
        <ele>0.00000</ele>
        <time>2025-04-02T00:52:57Z</time>
      </trkpt>
      <trkpt lat="51.0478964" lon="4.3013835">
        <ele>0.00000</ele>
        <time>2025-04-02T00:53:02Z</time>
      </trkpt>
      <trkpt lat="51.0478028" lon="4.3023232">
        <ele>0.00000</ele>
        <time>2025-04-02T00:53:12Z</time>
      </trkpt>
      <trkpt lat="51.047797" lon="4.3026665">
        <ele>0.00000</ele>
        <time>2025-04-02T00:53:16Z</time>
      </trkpt>
      <trkpt lat="51.0479015" lon="4.3031064">
        <ele>0.00000</ele>
        <time>2025-04-02T00:53:20Z</time>
      </trkpt>
      <trkpt lat="51.048092" lon="4.3034863">
        <ele>0.00000</ele>
        <time>2025-04-02T00:53:25Z</time>
      </trkpt>
      <trkpt lat="51.0492589" lon="4.3041301">
        <ele>0.00000</ele>
        <time>2025-04-02T00:53:45Z</time>
      </trkpt>
      <trkpt lat="51.04953" lon="4.30431">
        <ele>0.00000</ele>
        <time>2025-04-02T00:53:50Z</time>
      </trkpt>
      <trkpt lat="51.0496973" lon="4.3045914">
        <ele>0.00000</ele>
        <time>2025-04-02T00:53:54Z</time>
      </trkpt>
      <trkpt lat="51.0497715" lon="4.3048167">
        <ele>0.00000</ele>
        <time>2025-04-02T00:53:56Z</time>
      </trkpt>
      <trkpt lat="51.050365" lon="4.3065977">
        <ele>0.00000</ele>
        <time>2025-04-02T00:54:17Z</time>
      </trkpt>
      <trkpt lat="51.0514509" lon="4.3095803">
        <ele>0.00000</ele>
        <time>2025-04-02T00:54:52Z</time>
      </trkpt>
      <trkpt lat="51.0514509" lon="4.3095803">
        <ele>0.00000</ele>
        <time>2025-04-02T00:54:52Z</time>
      </trkpt>
      <trkpt lat="51.05049" lon="4.31258">
        <ele>0.00000</ele>
        <time>2025-04-02T00:55:26Z</time>
      </trkpt>
      <trkpt lat="51.0501627" lon="4.3128741">
        <ele>0.00000</ele>
        <time>2025-04-02T00:55:32Z</time>
      </trkpt>
      <trkpt lat="51.0487328" lon="4.3139362">
        <ele>0.00000</ele>
        <time>2025-04-02T00:55:57Z</time>
      </trkpt>
      <trkpt lat="51.0485237" lon="4.3141294">
        <ele>0.00000</ele>
        <time>2025-04-02T00:56:01Z</time>
      </trkpt>
      <trkpt lat="51.0482135" lon="4.314537">
        <ele>0.00000</ele>
        <time>2025-04-02T00:56:07Z</time>
      </trkpt>
      <trkpt lat="51.0471208" lon="4.3168545">
        <ele>0.00000</ele>
        <time>2025-04-02T00:56:37Z</time>
      </trkpt>
      <trkpt lat="51.0469184" lon="4.3171656">
        <ele>0.00000</ele>
        <time>2025-04-02T00:56:41Z</time>
      </trkpt>
      <trkpt lat="51.0461292" lon="4.3182385">
        <ele>0.00000</ele>
        <time>2025-04-02T00:56:58Z</time>
      </trkpt>
      <trkpt lat="51.0458392" lon="4.3186247">
        <ele>0.00000</ele>
        <time>2025-04-02T00:57:04Z</time>
      </trkpt>
      <trkpt lat="51.0449758" lon="4.3202341">
        <ele>0.00000</ele>
        <time>2025-04-02T00:57:25Z</time>
      </trkpt>
      <trkpt lat="51.0448004" lon="4.3204701">
        <ele>0.00000</ele>
        <time>2025-04-02T00:57:29Z</time>
      </trkpt>
      <trkpt lat="51.0431748" lon="4.3221653">
        <ele>0.00000</ele>
        <time>2025-04-02T00:58:00Z</time>
      </trkpt>
      <trkpt lat="51.04334" lon="4.32708">
        <ele>0.00000</ele>
        <time>2025-04-02T00:58:50Z</time>
      </trkpt>
      <trkpt lat="51.0432523" lon="4.3271542">
        <ele>0.00000</ele>
        <time>2025-04-02T00:58:52Z</time>
      </trkpt>
      <trkpt lat="51.0432827" lon="4.3275726">
        <ele>0.00000</ele>
        <time>2025-04-02T00:58:56Z</time>
      </trkpt>
      <trkpt lat="51.04303" lon="4.32767">
        <ele>0.00000</ele>
        <time>2025-04-02T00:59:00Z</time>
      </trkpt>
      <trkpt lat="51.0429623" lon="4.3276852">
        <ele>0.00000</ele>
        <time>2025-04-02T00:59:01Z</time>
      </trkpt>
      <trkpt lat="51.0428071" lon="4.3278193">
        <ele>0.00000</ele>
        <time>2025-04-02T00:59:04Z</time>
      </trkpt>
      <trkpt lat="51.0423113" lon="4.328506">
        <ele>0.00000</ele>
        <time>2025-04-02T00:59:15Z</time>
      </trkpt>
      <trkpt lat="51.0425036" lon="4.3291551">
        <ele>0.00000</ele>
        <time>2025-04-02T00:59:22Z</time>
      </trkpt>
      <trkpt lat="51.0420516" lon="4.3297827">
        <ele>0.00000</ele>
        <time>2025-04-02T00:59:32Z</time>
      </trkpt>
      <trkpt lat="51.0411072" lon="4.3293214">
        <ele>0.00000</ele>
        <time>2025-04-02T00:59:48Z</time>
      </trkpt>
      <trkpt lat="51.0410836" lon="4.3292624">
        <ele>0.00000</ele>
        <time>2025-04-02T00:59:48Z</time>
      </trkpt>
      <trkpt lat="51.0414411" lon="4.3286937">
        <ele>0.00000</ele>
        <time>2025-04-02T00:59:56Z</time>
      </trkpt>
    </trkseg>
  </trk>
</gpx>

